sensor_id;sensor_type;location;lat;lon;timestamp;P1;durP1;ratioP1;P2;durP2;ratioP2
3121;SDS011;1571;52.524;14.104;2022-09-03T00:02:23;5.20;;;0.80;;
3121;SDS011;1571;52.524;14.104;2022-09-03T00:04:56;2.27;;;0.87;;
3121;SDS011;1571;52.524;14.104;2022-09-03T00:07:33;1.67;;;0.90;;
3121;SDS011;1571;52.524;14.104;2022-09-03T00:10:10;1.27;;;0.80;;
3121;SDS011;1571;52.524;14.104;2022-09-03T00:12:42;3.30;;;1.00;;
3121;SDS011;1571;52.524;14.104;2022-09-03T00:15:14;1.30;;;1.20;;
3121;SDS011;1571;52.524;14.104;2022-09-03T00:17:45;1.07;;;0.87;;
3121;SDS011;1571;52.524;14.104;2022-09-03T00:20:18;3.07;;;1.00;;
3121;SDS011;1571;52.524;14.104;2022-09-03T00:22:50;2.33;;;1.17;;
3121;SDS011;1571;52.524;14.104;2022-09-03T00:25:22;0.90;;;0.80;;
3121;SDS011;1571;52.524;14.104;2022-09-03T00:27:54;2.53;;;1.00;;
3121;SDS011;1571;52.524;14.104;2022-09-03T00:30:25;1.50;;;0.83;;
3121;SDS011;1571;52.524;14.104;2022-09-03T00:32:56;1.33;;;1.00;;
3121;SDS011;1571;52.524;14.104;2022-09-03T00:35:28;1.40;;;1.30;;
3121;SDS011;1571;52.524;14.104;2022-09-03T00:38:02;2.20;;;1.20;;
3121;SDS011;1571;52.524;14.104;2022-09-03T00:40:37;2.53;;;1.30;;
3121;SDS011;1571;52.524;14.104;2022-09-03T00:43:17;1.60;;;1.10;;
3121;SDS011;1571;52.524;14.104;2022-09-03T00:45:55;2.73;;;1.20;;
3121;SDS011;1571;52.524;14.104;2022-09-03T00:48:32;1.73;;;1.17;;
3121;SDS011;1571;52.524;14.104;2022-09-03T00:51:13;1.20;;;0.83;;
3121;SDS011;1571;52.524;14.104;2022-09-03T00:53:58;1.57;;;1.00;;
3121;SDS011;1571;52.524;14.104;2022-09-03T00:56:35;1.60;;;1.30;;
3121;SDS011;1571;52.524;14.104;2022-09-03T00:59:10;1.63;;;1.53;;
3121;SDS011;1571;52.524;14.104;2022-09-03T01:01:53;2.70;;;1.27;;
3121;SDS011;1571;52.524;14.104;2022-09-03T01:04:34;3.03;;;1.27;;
3121;SDS011;1571;52.524;14.104;2022-09-03T01:07:17;1.20;;;1.10;;
3121;SDS011;1571;52.524;14.104;2022-09-03T01:10:01;0.90;;;0.80;;
3121;SDS011;1571;52.524;14.104;2022-09-03T01:12:42;1.20;;;1.10;;
3121;SDS011;1571;52.524;14.104;2022-09-03T01:15:21;5.57;;;1.30;;
3121;SDS011;1571;52.524;14.104;2022-09-03T01:18:00;1.17;;;1.07;;
3121;SDS011;1571;52.524;14.104;2022-09-03T01:20:41;1.20;;;1.10;;
3121;SDS011;1571;52.524;14.104;2022-09-03T01:26:26;1.60;;;1.10;;
3121;SDS011;1571;52.524;14.104;2022-09-03T01:29:07;4.10;;;1.40;;
3121;SDS011;1571;52.524;14.104;2022-09-03T01:31:45;1.53;;;1.00;;
3121;SDS011;1571;52.524;14.104;2022-09-03T01:34:23;2.17;;;1.20;;
3121;SDS011;1571;52.524;14.104;2022-09-03T01:37:00;1.43;;;1.13;;
3121;SDS011;1571;52.524;14.104;2022-09-03T01:39:37;1.97;;;1.33;;
3121;SDS011;1571;52.524;14.104;2022-09-03T01:42:16;1.73;;;1.30;;
3121;SDS011;1571;52.524;14.104;2022-09-03T01:44:55;2.17;;;1.20;;
3121;SDS011;1571;52.524;14.104;2022-09-03T01:47:38;1.10;;;1.00;;
3121;SDS011;1571;52.524;14.104;2022-09-03T01:50:20;3.83;;;1.10;;
3121;SDS011;1571;52.524;14.104;2022-09-03T01:53:02;2.10;;;1.23;;
3121;SDS011;1571;52.524;14.104;2022-09-03T01:55:38;4.90;;;1.30;;
3121;SDS011;1571;52.524;14.104;2022-09-03T01:58:15;2.43;;;1.73;;
3121;SDS011;1571;52.524;14.104;2022-09-03T02:00:52;2.03;;;1.57;;
3121;SDS011;1571;52.524;14.104;2022-09-03T02:03:31;4.40;;;1.37;;
3121;SDS011;1571;52.524;14.104;2022-09-03T02:06:06;4.23;;;1.60;;
3121;SDS011;1571;52.524;14.104;2022-09-03T02:08:37;1.23;;;0.90;;
3121;SDS011;1571;52.524;14.104;2022-09-03T02:11:06;2.10;;;1.73;;
3121;SDS011;1571;52.524;14.104;2022-09-03T02:13:37;1.80;;;1.60;;
3121;SDS011;1571;52.524;14.104;2022-09-03T02:16:10;2.27;;;1.30;;
3121;SDS011;1571;52.524;14.104;2022-09-03T02:18:42;2.27;;;1.37;;
3121;SDS011;1571;52.524;14.104;2022-09-03T02:21:13;1.57;;;1.47;;
3121;SDS011;1571;52.524;14.104;2022-09-03T02:23:46;1.50;;;1.40;;
3121;SDS011;1571;52.524;14.104;2022-09-03T02:26:15;3.17;;;1.30;;
3121;SDS011;1571;52.524;14.104;2022-09-03T02:28:48;3.33;;;1.27;;
3121;SDS011;1571;52.524;14.104;2022-09-03T02:31:19;2.00;;;1.67;;
3121;SDS011;1571;52.524;14.104;2022-09-03T02:33:47;4.30;;;1.87;;
3121;SDS011;1571;52.524;14.104;2022-09-03T02:36:18;1.60;;;1.50;;
3121;SDS011;1571;52.524;14.104;2022-09-03T02:38:53;2.27;;;1.47;;
3121;SDS011;1571;52.524;14.104;2022-09-03T02:41:21;2.33;;;1.53;;
3121;SDS011;1571;52.524;14.104;2022-09-03T02:43:54;1.90;;;1.43;;
3121;SDS011;1571;52.524;14.104;2022-09-03T02:46:31;2.00;;;1.40;;
3121;SDS011;1571;52.524;14.104;2022-09-03T02:49:02;2.00;;;1.90;;
3121;SDS011;1571;52.524;14.104;2022-09-03T02:51:31;2.27;;;1.93;;
3121;SDS011;1571;52.524;14.104;2022-09-03T02:54:01;1.60;;;1.50;;
3121;SDS011;1571;52.524;14.104;2022-09-03T02:56:29;1.70;;;1.60;;
3121;SDS011;1571;52.524;14.104;2022-09-03T02:58:57;3.83;;;1.70;;
3121;SDS011;1571;52.524;14.104;2022-09-03T03:01:26;3.57;;;1.60;;
3121;SDS011;1571;52.524;14.104;2022-09-03T03:03:55;1.73;;;1.63;;
3121;SDS011;1571;52.524;14.104;2022-09-03T03:06:25;3.60;;;1.73;;
3121;SDS011;1571;52.524;14.104;2022-09-03T03:08:53;2.27;;;2.07;;
3121;SDS011;1571;52.524;14.104;2022-09-03T03:11:21;2.33;;;2.23;;
3121;SDS011;1571;52.524;14.104;2022-09-03T03:13:52;2.27;;;2.07;;
3121;SDS011;1571;52.524;14.104;2022-09-03T03:16:20;2.83;;;2.33;;
3121;SDS011;1571;52.524;14.104;2022-09-03T03:18:48;3.20;;;2.43;;
3121;SDS011;1571;52.524;14.104;2022-09-03T03:21:19;4.70;;;1.80;;
3121;SDS011;1571;52.524;14.104;2022-09-03T03:23:48;6.13;;;2.00;;
3121;SDS011;1571;52.524;14.104;2022-09-03T03:26:17;3.17;;;1.80;;
3121;SDS011;1571;52.524;14.104;2022-09-03T03:28:47;2.37;;;1.63;;
3121;SDS011;1571;52.524;14.104;2022-09-03T03:31:17;2.20;;;2.10;;
3121;SDS011;1571;52.524;14.104;2022-09-03T03:33:49;2.23;;;2.13;;
3121;SDS011;1571;52.524;14.104;2022-09-03T03:36:20;6.60;;;2.30;;
3121;SDS011;1571;52.524;14.104;2022-09-03T03:38:51;1.67;;;1.50;;
3121;SDS011;1571;52.524;14.104;2022-09-03T03:41:22;4.23;;;1.80;;
3121;SDS011;1571;52.524;14.104;2022-09-03T03:43:51;3.80;;;2.20;;
3121;SDS011;1571;52.524;14.104;2022-09-03T03:46:21;3.90;;;1.67;;
3121;SDS011;1571;52.524;14.104;2022-09-03T03:48:50;3.57;;;2.23;;
3121;SDS011;1571;52.524;14.104;2022-09-03T03:51:20;2.73;;;2.00;;
3121;SDS011;1571;52.524;14.104;2022-09-03T03:53:52;2.37;;;2.27;;
3121;SDS011;1571;52.524;14.104;2022-09-03T03:56:22;4.53;;;2.10;;
3121;SDS011;1571;52.524;14.104;2022-09-03T03:58:52;2.30;;;2.20;;
3121;SDS011;1571;52.524;14.104;2022-09-03T04:01:21;3.00;;;2.23;;
3121;SDS011;1571;52.524;14.104;2022-09-03T04:03:51;2.33;;;2.17;;
3121;SDS011;1571;52.524;14.104;2022-09-03T04:06:23;3.93;;;2.30;;
3121;SDS011;1571;52.524;14.104;2022-09-03T04:08:52;3.67;;;1.90;;
3121;SDS011;1571;52.524;14.104;2022-09-03T04:11:21;3.83;;;2.10;;
3121;SDS011;1571;52.524;14.104;2022-09-03T04:13:50;2.67;;;2.17;;
3121;SDS011;1571;52.524;14.104;2022-09-03T04:16:20;4.20;;;2.70;;
3121;SDS011;1571;52.524;14.104;2022-09-03T04:18:50;3.03;;;2.57;;
3121;SDS011;1571;52.524;14.104;2022-09-03T04:21:19;3.17;;;2.50;;
3121;SDS011;1571;52.524;14.104;2022-09-03T04:23:50;2.37;;;1.93;;
3121;SDS011;1571;52.524;14.104;2022-09-03T04:26:20;2.70;;;2.17;;
3121;SDS011;1571;52.524;14.104;2022-09-03T04:28:49;3.03;;;2.03;;
3121;SDS011;1571;52.524;14.104;2022-09-03T04:31:19;2.23;;;1.90;;
3121;SDS011;1571;52.524;14.104;2022-09-03T04:33:48;2.40;;;2.00;;
3121;SDS011;1571;52.524;14.104;2022-09-03T04:36:17;3.20;;;2.10;;
3121;SDS011;1571;52.524;14.104;2022-09-03T04:38:47;2.50;;;2.30;;
3121;SDS011;1571;52.524;14.104;2022-09-03T04:41:19;2.50;;;2.00;;
3121;SDS011;1571;52.524;14.104;2022-09-03T04:43:49;2.67;;;2.27;;
3121;SDS011;1571;52.524;14.104;2022-09-03T04:46:19;2.70;;;2.50;;
3121;SDS011;1571;52.524;14.104;2022-09-03T04:48:48;3.17;;;2.10;;
3121;SDS011;1571;52.524;14.104;2022-09-03T04:51:19;3.20;;;1.83;;
3121;SDS011;1571;52.524;14.104;2022-09-03T04:53:52;1.70;;;1.60;;
3121;SDS011;1571;52.524;14.104;2022-09-03T04:56:24;2.60;;;2.40;;
3121;SDS011;1571;52.524;14.104;2022-09-03T04:58:54;3.30;;;2.20;;
3121;SDS011;1571;52.524;14.104;2022-09-03T05:01:23;5.47;;;2.40;;
3121;SDS011;1571;52.524;14.104;2022-09-03T05:03:54;3.07;;;2.03;;
3121;SDS011;1571;52.524;14.104;2022-09-03T05:06:24;2.77;;;2.23;;
3121;SDS011;1571;52.524;14.104;2022-09-03T05:08:52;2.73;;;1.97;;
3121;SDS011;1571;52.524;14.104;2022-09-03T05:11:22;5.17;;;2.23;;
3121;SDS011;1571;52.524;14.104;2022-09-03T05:13:52;4.50;;;2.90;;
3121;SDS011;1571;52.524;14.104;2022-09-03T05:16:24;2.30;;;2.10;;
3121;SDS011;1571;52.524;14.104;2022-09-03T05:18:55;3.40;;;2.33;;
3121;SDS011;1571;52.524;14.104;2022-09-03T05:21:25;1.90;;;1.80;;
3121;SDS011;1571;52.524;14.104;2022-09-03T05:23:54;3.90;;;2.30;;
3121;SDS011;1571;52.524;14.104;2022-09-03T05:26:25;2.43;;;1.77;;
3121;SDS011;1571;52.524;14.104;2022-09-03T05:28:56;3.60;;;3.20;;
3121;SDS011;1571;52.524;14.104;2022-09-03T05:31:26;2.93;;;1.53;;
3121;SDS011;1571;52.524;14.104;2022-09-03T05:33:58;3.53;;;2.70;;
3121;SDS011;1571;52.524;14.104;2022-09-03T05:36:29;3.80;;;3.30;;
3121;SDS011;1571;52.524;14.104;2022-09-03T05:38:58;2.50;;;2.10;;
3121;SDS011;1571;52.524;14.104;2022-09-03T05:41:28;2.13;;;1.97;;
3121;SDS011;1571;52.524;14.104;2022-09-03T05:43:58;5.50;;;2.10;;
3121;SDS011;1571;52.524;14.104;2022-09-03T05:46:27;3.50;;;2.33;;
3121;SDS011;1571;52.524;14.104;2022-09-03T05:48:59;2.80;;;2.20;;
3121;SDS011;1571;52.524;14.104;2022-09-03T05:51:29;2.47;;;2.20;;
3121;SDS011;1571;52.524;14.104;2022-09-03T05:53:58;2.13;;;2.03;;
3121;SDS011;1571;52.524;14.104;2022-09-03T05:56:27;2.20;;;2.00;;
3121;SDS011;1571;52.524;14.104;2022-09-03T05:58:58;4.80;;;2.97;;
3121;SDS011;1571;52.524;14.104;2022-09-03T06:01:29;2.13;;;1.73;;
3121;SDS011;1571;52.524;14.104;2022-09-03T06:03:59;3.30;;;2.37;;
3121;SDS011;1571;52.524;14.104;2022-09-03T06:06:29;3.23;;;2.47;;
3121;SDS011;1571;52.524;14.104;2022-09-03T06:08:59;4.13;;;2.33;;
3121;SDS011;1571;52.524;14.104;2022-09-03T06:11:32;3.37;;;1.97;;
3121;SDS011;1571;52.524;14.104;2022-09-03T06:14:02;2.57;;;2.37;;
3121;SDS011;1571;52.524;14.104;2022-09-03T06:16:33;3.30;;;1.97;;
3121;SDS011;1571;52.524;14.104;2022-09-03T06:19:02;2.10;;;1.90;;
3121;SDS011;1571;52.524;14.104;2022-09-03T06:21:35;2.20;;;1.60;;
3121;SDS011;1571;52.524;14.104;2022-09-03T06:24:05;1.97;;;1.63;;
3121;SDS011;1571;52.524;14.104;2022-09-03T06:26:36;2.07;;;1.37;;
3121;SDS011;1571;52.524;14.104;2022-09-03T06:29:04;3.93;;;1.53;;
3121;SDS011;1571;52.524;14.104;2022-09-03T06:31:33;1.87;;;1.70;;
3121;SDS011;1571;52.524;14.104;2022-09-03T06:34:02;1.43;;;1.33;;
3121;SDS011;1571;52.524;14.104;2022-09-03T06:36:32;1.73;;;1.20;;
3121;SDS011;1571;52.524;14.104;2022-09-03T06:39:00;4.03;;;1.57;;
3121;SDS011;1571;52.524;14.104;2022-09-03T06:41:29;3.40;;;1.63;;
3121;SDS011;1571;52.524;14.104;2022-09-03T06:44:03;1.43;;;1.33;;
3121;SDS011;1571;52.524;14.104;2022-09-03T06:46:37;3.33;;;1.93;;
3121;SDS011;1571;52.524;14.104;2022-09-03T06:49:08;2.70;;;1.57;;
3121;SDS011;1571;52.524;14.104;2022-09-03T06:51:37;1.70;;;1.60;;
3121;SDS011;1571;52.524;14.104;2022-09-03T06:54:08;2.60;;;2.03;;
3121;SDS011;1571;52.524;14.104;2022-09-03T06:56:38;2.60;;;1.57;;
3121;SDS011;1571;52.524;14.104;2022-09-03T06:59:10;2.93;;;1.20;;
3121;SDS011;1571;52.524;14.104;2022-09-03T07:01:39;1.60;;;1.30;;
3121;SDS011;1571;52.524;14.104;2022-09-03T07:04:12;1.57;;;1.47;;
3121;SDS011;1571;52.524;14.104;2022-09-03T07:06:42;1.70;;;1.50;;
3121;SDS011;1571;52.524;14.104;2022-09-03T07:09:11;3.20;;;1.70;;
3121;SDS011;1571;52.524;14.104;2022-09-03T07:11:41;1.50;;;1.27;;
3121;SDS011;1571;52.524;14.104;2022-09-03T07:14:16;3.27;;;1.50;;
3121;SDS011;1571;52.524;14.104;2022-09-03T07:16:46;2.63;;;1.37;;
3121;SDS011;1571;52.524;14.104;2022-09-03T07:19:16;2.53;;;1.77;;
3121;SDS011;1571;52.524;14.104;2022-09-03T07:21:44;5.13;;;1.00;;
3121;SDS011;1571;52.524;14.104;2022-09-03T07:24:16;6.30;;;1.37;;
3121;SDS011;1571;52.524;14.104;2022-09-03T07:26:45;1.53;;;1.00;;
3121;SDS011;1571;52.524;14.104;2022-09-03T07:29:16;4.63;;;1.50;;
3121;SDS011;1571;52.524;14.104;2022-09-03T07:31:47;2.10;;;1.30;;
3121;SDS011;1571;52.524;14.104;2022-09-03T07:34:19;3.00;;;1.40;;
3121;SDS011;1571;52.524;14.104;2022-09-03T07:36:51;1.90;;;1.20;;
3121;SDS011;1571;52.524;14.104;2022-09-03T07:39:20;1.60;;;1.50;;
3121;SDS011;1571;52.524;14.104;2022-09-03T07:41:48;1.27;;;1.17;;
3121;SDS011;1571;52.524;14.104;2022-09-03T07:44:18;1.60;;;1.50;;
3121;SDS011;1571;52.524;14.104;2022-09-03T07:46:46;5.13;;;1.57;;
3121;SDS011;1571;52.524;14.104;2022-09-03T07:49:17;6.83;;;1.70;;
3121;SDS011;1571;52.524;14.104;2022-09-03T07:51:48;4.00;;;1.87;;
3121;SDS011;1571;52.524;14.104;2022-09-03T07:54:20;1.50;;;1.40;;
3121;SDS011;1571;52.524;14.104;2022-09-03T07:56:49;3.43;;;1.60;;
3121;SDS011;1571;52.524;14.104;2022-09-03T07:59:19;1.80;;;1.43;;
3121;SDS011;1571;52.524;14.104;2022-09-03T08:01:48;6.60;;;1.33;;
3121;SDS011;1571;52.524;14.104;2022-09-03T08:04:17;4.87;;;1.40;;
3121;SDS011;1571;52.524;14.104;2022-09-03T08:06:46;1.37;;;1.13;;
3121;SDS011;1571;52.524;14.104;2022-09-03T08:09:15;3.23;;;1.30;;
3121;SDS011;1571;52.524;14.104;2022-09-03T08:11:43;1.50;;;1.20;;
3121;SDS011;1571;52.524;14.104;2022-09-03T08:14:12;1.50;;;1.33;;
3121;SDS011;1571;52.524;14.104;2022-09-03T08:16:43;2.27;;;1.33;;
3121;SDS011;1571;52.524;14.104;2022-09-03T08:19:14;3.10;;;1.10;;
3121;SDS011;1571;52.524;14.104;2022-09-03T08:21:44;1.10;;;1.00;;
3121;SDS011;1571;52.524;14.104;2022-09-03T08:24:13;1.23;;;1.10;;
3121;SDS011;1571;52.524;14.104;2022-09-03T08:26:42;2.30;;;1.10;;
3121;SDS011;1571;52.524;14.104;2022-09-03T08:29:17;2.00;;;1.10;;
3121;SDS011;1571;52.524;14.104;2022-09-03T08:31:47;2.93;;;1.27;;
3121;SDS011;1571;52.524;14.104;2022-09-03T08:34:16;2.00;;;1.17;;
3121;SDS011;1571;52.524;14.104;2022-09-03T08:36:44;4.03;;;1.40;;
3121;SDS011;1571;52.524;14.104;2022-09-03T08:39:13;2.80;;;1.10;;
3121;SDS011;1571;52.524;14.104;2022-09-03T08:41:54;1.80;;;1.00;;
3121;SDS011;1571;52.524;14.104;2022-09-03T08:44:38;3.63;;;1.07;;
3121;SDS011;1571;52.524;14.104;2022-09-03T08:47:15;1.93;;;1.33;;
3121;SDS011;1571;52.524;14.104;2022-09-03T08:49:48;0.97;;;0.87;;
3121;SDS011;1571;52.524;14.104;2022-09-03T08:52:25;1.87;;;1.00;;
3121;SDS011;1571;52.524;14.104;2022-09-03T08:55:00;1.30;;;0.97;;
3121;SDS011;1571;52.524;14.104;2022-09-03T08:57:39;1.20;;;0.90;;
3121;SDS011;1571;52.524;14.104;2022-09-03T09:00:10;2.80;;;1.37;;
3121;SDS011;1571;52.524;14.104;2022-09-03T09:02:45;1.63;;;1.00;;
3121;SDS011;1571;52.524;14.104;2022-09-03T09:05:23;1.90;;;0.83;;
3121;SDS011;1571;52.524;14.104;2022-09-03T09:08:00;6.93;;;1.50;;
3121;SDS011;1571;52.524;14.104;2022-09-03T09:10:36;1.70;;;0.90;;
3121;SDS011;1571;52.524;14.104;2022-09-03T09:13:12;4.17;;;1.13;;
3121;SDS011;1571;52.524;14.104;2022-09-03T09:15:52;5.67;;;1.13;;
3121;SDS011;1571;52.524;14.104;2022-09-03T09:18:28;1.63;;;0.90;;
3121;SDS011;1571;52.524;14.104;2022-09-03T09:21:09;3.67;;;1.03;;
3121;SDS011;1571;52.524;14.104;2022-09-03T09:23:48;6.27;;;0.90;;
3121;SDS011;1571;52.524;14.104;2022-09-03T09:26:18;13.20;;;1.17;;
3121;SDS011;1571;52.524;14.104;2022-09-03T09:28:49;6.30;;;1.20;;
3121;SDS011;1571;52.524;14.104;2022-09-03T09:31:25;2.47;;;1.37;;
3121;SDS011;1571;52.524;14.104;2022-09-03T09:34:01;3.83;;;0.90;;
3121;SDS011;1571;52.524;14.104;2022-09-03T09:36:33;3.40;;;0.83;;
3121;SDS011;1571;52.524;14.104;2022-09-03T09:39:08;1.43;;;1.00;;
3121;SDS011;1571;52.524;14.104;2022-09-03T09:41:38;4.47;;;1.20;;
3121;SDS011;1571;52.524;14.104;2022-09-03T09:44:06;5.97;;;1.10;;
3121;SDS011;1571;52.524;14.104;2022-09-03T09:46:35;24.63;;;2.80;;
3121;SDS011;1571;52.524;14.104;2022-09-03T09:49:17;23.37;;;3.50;;
3121;SDS011;1571;52.524;14.104;2022-09-03T09:52:00;5.33;;;1.10;;
3121;SDS011;1571;52.524;14.104;2022-09-03T09:54:30;3.93;;;0.87;;
3121;SDS011;1571;52.524;14.104;2022-09-03T09:56:59;18.07;;;1.90;;
3121;SDS011;1571;52.524;14.104;2022-09-03T09:59:29;8.17;;;1.00;;
3121;SDS011;1571;52.524;14.104;2022-09-03T10:02:06;14.10;;;1.40;;
3121;SDS011;1571;52.524;14.104;2022-09-03T10:04:45;7.93;;;1.77;;
3121;SDS011;1571;52.524;14.104;2022-09-03T10:07:21;7.40;;;0.93;;
3121;SDS011;1571;52.524;14.104;2022-09-03T10:09:58;5.13;;;0.97;;
3121;SDS011;1571;52.524;14.104;2022-09-03T10:12:29;8.13;;;1.07;;
3121;SDS011;1571;52.524;14.104;2022-09-03T10:15:07;6.10;;;1.20;;
3121;SDS011;1571;52.524;14.104;2022-09-03T10:17:50;1.57;;;1.03;;
3121;SDS011;1571;52.524;14.104;2022-09-03T10:20:25;3.40;;;0.97;;
3121;SDS011;1571;52.524;14.104;2022-09-03T10:23:10;2.20;;;0.90;;
3121;SDS011;1571;52.524;14.104;2022-09-03T10:25:45;4.17;;;1.00;;
3121;SDS011;1571;52.524;14.104;2022-09-03T10:28:24;1.70;;;0.90;;
3121;SDS011;1571;52.524;14.104;2022-09-03T10:30:59;4.87;;;1.10;;
3121;SDS011;1571;52.524;14.104;2022-09-03T10:33:37;1.80;;;0.80;;
3121;SDS011;1571;52.524;14.104;2022-09-03T10:36:13;4.70;;;0.80;;
3121;SDS011;1571;52.524;14.104;2022-09-03T10:38:50;4.03;;;0.80;;
3121;SDS011;1571;52.524;14.104;2022-09-03T10:41:32;1.20;;;0.80;;
3121;SDS011;1571;52.524;14.104;2022-09-03T10:44:17;3.63;;;1.17;;
3121;SDS011;1571;52.524;14.104;2022-09-03T10:47:04;1.50;;;0.97;;
3121;SDS011;1571;52.524;14.104;2022-09-03T10:49:49;1.63;;;0.70;;
3121;SDS011;1571;52.524;14.104;2022-09-03T10:52:26;1.13;;;0.70;;
3121;SDS011;1571;52.524;14.104;2022-09-03T10:55:02;1.10;;;0.70;;
3121;SDS011;1571;52.524;14.104;2022-09-03T10:57:44;1.67;;;0.73;;
3121;SDS011;1571;52.524;14.104;2022-09-03T11:00:15;2.93;;;0.70;;
3121;SDS011;1571;52.524;14.104;2022-09-03T11:02:51;3.73;;;0.70;;
3121;SDS011;1571;52.524;14.104;2022-09-03T11:05:34;2.50;;;0.70;;
3121;SDS011;1571;52.524;14.104;2022-09-03T11:08:10;2.30;;;0.50;;
3121;SDS011;1571;52.524;14.104;2022-09-03T11:10:43;1.63;;;0.70;;
3121;SDS011;1571;52.524;14.104;2022-09-03T11:13:19;0.83;;;0.60;;
3121;SDS011;1571;52.524;14.104;2022-09-03T11:15:52;2.53;;;1.00;;
3121;SDS011;1571;52.524;14.104;2022-09-03T11:18:25;0.80;;;0.60;;
3121;SDS011;1571;52.524;14.104;2022-09-03T11:21:01;1.27;;;0.70;;
3121;SDS011;1571;52.524;14.104;2022-09-03T11:23:40;0.70;;;0.60;;
3121;SDS011;1571;52.524;14.104;2022-09-03T11:26:11;2.30;;;0.67;;
3121;SDS011;1571;52.524;14.104;2022-09-03T11:28:47;2.00;;;0.60;;
3121;SDS011;1571;52.524;14.104;2022-09-03T11:31:23;1.10;;;0.60;;
3121;SDS011;1571;52.524;14.104;2022-09-03T11:33:58;5.77;;;0.60;;
3121;SDS011;1571;52.524;14.104;2022-09-03T11:36:34;0.93;;;0.60;;
3121;SDS011;1571;52.524;14.104;2022-09-03T11:39:17;3.63;;;0.97;;
3121;SDS011;1571;52.524;14.104;2022-09-03T11:41:57;1.73;;;0.70;;
3121;SDS011;1571;52.524;14.104;2022-09-03T11:44:34;0.90;;;0.60;;
3121;SDS011;1571;52.524;14.104;2022-09-03T11:47:20;2.10;;;0.70;;
3121;SDS011;1571;52.524;14.104;2022-09-03T11:49:50;0.80;;;0.80;;
3121;SDS011;1571;52.524;14.104;2022-09-03T11:52:26;3.30;;;0.70;;
3121;SDS011;1571;52.524;14.104;2022-09-03T11:54:57;0.50;;;0.50;;
3121;SDS011;1571;52.524;14.104;2022-09-03T11:57:26;1.23;;;0.60;;
3121;SDS011;1571;52.524;14.104;2022-09-03T12:00:06;0.77;;;0.63;;
3121;SDS011;1571;52.524;14.104;2022-09-03T12:02:41;2.93;;;0.60;;
3121;SDS011;1571;52.524;14.104;2022-09-03T12:05:13;2.10;;;0.70;;
3121;SDS011;1571;52.524;14.104;2022-09-03T12:08:02;1.53;;;0.80;;
3121;SDS011;1571;52.524;14.104;2022-09-03T12:10:42;2.80;;;0.70;;
3121;SDS011;1571;52.524;14.104;2022-09-03T12:13:23;5.80;;;0.80;;
3121;SDS011;1571;52.524;14.104;2022-09-03T12:18:59;2.50;;;0.60;;
3121;SDS011;1571;52.524;14.104;2022-09-03T12:21:35;1.90;;;0.87;;
3121;SDS011;1571;52.524;14.104;2022-09-03T12:24:05;1.77;;;0.60;;
3121;SDS011;1571;52.524;14.104;2022-09-03T12:26:39;1.57;;;0.60;;
3121;SDS011;1571;52.524;14.104;2022-09-03T12:29:19;0.80;;;0.67;;
3121;SDS011;1571;52.524;14.104;2022-09-03T12:31:54;1.20;;;1.03;;
3121;SDS011;1571;52.524;14.104;2022-09-03T12:34:23;0.80;;;0.60;;
3121;SDS011;1571;52.524;14.104;2022-09-03T12:36:53;1.07;;;0.73;;
3121;SDS011;1571;52.524;14.104;2022-09-03T12:39:22;2.77;;;1.00;;
3121;SDS011;1571;52.524;14.104;2022-09-03T12:42:14;4.80;;;0.77;;
3121;SDS011;1571;52.524;14.104;2022-09-03T12:44:47;3.27;;;0.80;;
3121;SDS011;1571;52.524;14.104;2022-09-03T12:47:16;1.70;;;0.77;;
3121;SDS011;1571;52.524;14.104;2022-09-03T12:50:05;0.60;;;0.57;;
3121;SDS011;1571;52.524;14.104;2022-09-03T12:52:35;1.80;;;0.80;;
3121;SDS011;1571;52.524;14.104;2022-09-03T12:55:07;7.67;;;1.00;;
3121;SDS011;1571;52.524;14.104;2022-09-03T12:57:50;24.07;;;1.80;;
3121;SDS011;1571;52.524;14.104;2022-09-03T13:00:28;10.27;;;1.10;;
3121;SDS011;1571;52.524;14.104;2022-09-03T13:02:59;2.07;;;0.70;;
3121;SDS011;1571;52.524;14.104;2022-09-03T13:05:32;10.40;;;1.60;;
3121;SDS011;1571;52.524;14.104;2022-09-03T13:08:03;16.87;;;1.80;;
3121;SDS011;1571;52.524;14.104;2022-09-03T13:10:35;8.17;;;0.90;;
3121;SDS011;1571;52.524;14.104;2022-09-03T13:13:16;4.10;;;0.63;;
3121;SDS011;1571;52.524;14.104;2022-09-03T13:15:56;3.37;;;1.00;;
3121;SDS011;1571;52.524;14.104;2022-09-03T13:18:37;4.00;;;0.80;;
3121;SDS011;1571;52.524;14.104;2022-09-03T13:21:14;0.80;;;0.70;;
3121;SDS011;1571;52.524;14.104;2022-09-03T13:23:51;2.23;;;0.77;;
3121;SDS011;1571;52.524;14.104;2022-09-03T13:26:31;3.53;;;0.60;;
3121;SDS011;1571;52.524;14.104;2022-09-03T13:29:13;4.87;;;0.80;;
3121;SDS011;1571;52.524;14.104;2022-09-03T13:31:54;14.90;;;1.00;;
3121;SDS011;1571;52.524;14.104;2022-09-03T13:34:32;1.67;;;0.70;;
3121;SDS011;1571;52.524;14.104;2022-09-03T13:37:07;1.20;;;0.60;;
3121;SDS011;1571;52.524;14.104;2022-09-03T13:39:49;1.83;;;0.60;;
3121;SDS011;1571;52.524;14.104;2022-09-03T13:42:22;2.23;;;0.90;;
3121;SDS011;1571;52.524;14.104;2022-09-03T13:44:57;1.23;;;0.90;;
3121;SDS011;1571;52.524;14.104;2022-09-03T13:47:33;15.70;;;2.00;;
3121;SDS011;1571;52.524;14.104;2022-09-03T13:50:26;16.47;;;2.30;;
3121;SDS011;1571;52.524;14.104;2022-09-03T13:52:57;10.03;;;1.20;;
3121;SDS011;1571;52.524;14.104;2022-09-03T13:55:32;6.73;;;1.10;;
3121;SDS011;1571;52.524;14.104;2022-09-03T13:58:10;1.57;;;0.60;;
3121;SDS011;1571;52.524;14.104;2022-09-03T14:00:51;0.67;;;0.67;;
3121;SDS011;1571;52.524;14.104;2022-09-03T14:03:30;1.63;;;0.53;;
3121;SDS011;1571;52.524;14.104;2022-09-03T14:06:02;0.90;;;0.73;;
3121;SDS011;1571;52.524;14.104;2022-09-03T14:08:34;0.90;;;0.80;;
3121;SDS011;1571;52.524;14.104;2022-09-03T14:11:23;1.90;;;0.60;;
3121;SDS011;1571;52.524;14.104;2022-09-03T14:14:02;3.67;;;0.80;;
3121;SDS011;1571;52.524;14.104;2022-09-03T14:16:43;8.73;;;1.10;;
3121;SDS011;1571;52.524;14.104;2022-09-03T14:19:18;11.27;;;1.57;;
3121;SDS011;1571;52.524;14.104;2022-09-03T14:21:51;4.40;;;1.10;;
3121;SDS011;1571;52.524;14.104;2022-09-03T14:24:24;2.60;;;0.80;;
3121;SDS011;1571;52.524;14.104;2022-09-03T14:26:56;3.13;;;0.70;;
3121;SDS011;1571;52.524;14.104;2022-09-03T14:29:28;1.73;;;0.60;;
3121;SDS011;1571;52.524;14.104;2022-09-03T14:32:03;1.37;;;0.70;;
3121;SDS011;1571;52.524;14.104;2022-09-03T14:37:57;1.80;;;0.90;;
3121;SDS011;1571;52.524;14.104;2022-09-03T14:40:41;2.43;;;0.83;;
3121;SDS011;1571;52.524;14.104;2022-09-03T14:43:17;10.50;;;0.90;;
3121;SDS011;1571;52.524;14.104;2022-09-03T14:46:07;3.00;;;1.00;;
3121;SDS011;1571;52.524;14.104;2022-09-03T14:48:53;9.10;;;0.80;;
3121;SDS011;1571;52.524;14.104;2022-09-03T14:51:35;8.90;;;1.20;;
3121;SDS011;1571;52.524;14.104;2022-09-03T14:54:22;3.13;;;0.90;;
3121;SDS011;1571;52.524;14.104;2022-09-03T14:57:01;4.57;;;0.93;;
3121;SDS011;1571;52.524;14.104;2022-09-03T15:02:45;13.37;;;2.07;;
3121;SDS011;1571;52.524;14.104;2022-09-03T15:05:31;20.60;;;1.70;;
3121;SDS011;1571;52.524;14.104;2022-09-03T15:08:10;3.60;;;1.10;;
3121;SDS011;1571;52.524;14.104;2022-09-03T15:10:51;4.63;;;0.80;;
3121;SDS011;1571;52.524;14.104;2022-09-03T15:13:23;1.50;;;0.70;;
3121;SDS011;1571;52.524;14.104;2022-09-03T15:16:04;1.50;;;0.70;;
3121;SDS011;1571;52.524;14.104;2022-09-03T15:18:50;0.70;;;0.60;;
3121;SDS011;1571;52.524;14.104;2022-09-03T15:21:37;3.20;;;0.80;;
3121;SDS011;1571;52.524;14.104;2022-09-03T15:24:15;0.80;;;0.80;;
3121;SDS011;1571;52.524;14.104;2022-09-03T15:26:59;13.53;;;0.70;;
3121;SDS011;1571;52.524;14.104;2022-09-03T15:29:41;0.73;;;0.63;;
3121;SDS011;1571;52.524;14.104;2022-09-03T15:32:19;1.20;;;0.80;;
3121;SDS011;1571;52.524;14.104;2022-09-03T15:34:59;16.33;;;1.73;;
3121;SDS011;1571;52.524;14.104;2022-09-03T15:37:35;7.43;;;1.10;;
3121;SDS011;1571;52.524;14.104;2022-09-03T15:40:14;5.00;;;1.67;;
3121;SDS011;1571;52.524;14.104;2022-09-03T15:42:51;6.17;;;1.00;;
3121;SDS011;1571;52.524;14.104;2022-09-03T15:45:27;1.63;;;0.97;;
3121;SDS011;1571;52.524;14.104;2022-09-03T15:48:06;1.87;;;0.83;;
3121;SDS011;1571;52.524;14.104;2022-09-03T15:50:49;0.80;;;0.80;;
3121;SDS011;1571;52.524;14.104;2022-09-03T15:53:26;1.57;;;0.77;;
3121;SDS011;1571;52.524;14.104;2022-09-03T15:56:01;1.70;;;0.80;;